createdAt,value
2019-04-27T00:02:01.817Z,46.18
2019-04-27T00:05:32.013Z,34.60
2019-04-27T00:08:39.048Z,29.32
2019-04-27T00:11:45.531Z,44.55
2019-04-27T00:14:48.273Z,41.10
2019-04-27T00:17:58.203Z,40.67
2019-04-27T00:21:17.908Z,40.80
2019-04-27T00:24:19.989Z,34.67
2019-04-27T00:27:21.268Z,35.05
2019-04-27T00:30:23.526Z,35.17
2019-04-27T00:33:25.014Z,45.90
2019-04-27T00:36:35.244Z,50.08
2019-04-27T00:42:45.901Z,54.88
2019-04-27T00:45:47.485Z,44.55
2019-04-27T00:48:49.191Z,41.88
2019-04-27T00:51:50.490Z,33.45
2019-04-27T00:54:51.766Z,38.35
2019-04-27T00:58:10.196Z,46.63
2019-04-27T01:01:14.992Z,36.75
2019-04-27T01:04:18.459Z,37.85
2019-04-27T01:07:20.519Z,42.98
2019-04-27T01:10:23.347Z,46.40
2019-04-27T01:13:24.825Z,43.42
2019-04-27T01:16:26.559Z,35.78
2019-04-27T01:19:28.957Z,42.50
2019-04-27T01:22:30.363Z,40.88
2019-04-27T01:25:38.823Z,39.83
2019-04-27T01:28:42.040Z,51.55
2019-04-27T01:31:43.814Z,45.12
2019-04-27T01:34:45.198Z,44.50
2019-04-27T01:37:48.665Z,48.08
2019-04-27T01:40:49.971Z,43.73
2019-04-27T01:43:51.279Z,37.08
2019-04-27T01:46:52.876Z,48.33
2019-04-27T01:49:54.166Z,46.90
2019-04-27T01:52:55.649Z,46.40
2019-04-27T01:55:59.048Z,40.80
2019-04-27T01:59:00.357Z,49.50
2019-04-27T02:02:03.959Z,47.00
2019-04-27T02:05:08.970Z,45.10
2019-04-27T02:08:10.613Z,43.58
2019-04-27T02:11:12.133Z,42.80
2019-04-27T02:14:13.403Z,48.02
2019-04-27T02:17:15.150Z,46.65
2019-04-27T02:20:16.558Z,45.25
2019-04-27T02:23:19.234Z,53.33
2019-04-27T02:26:21.594Z,44.27
2019-04-27T02:29:34.463Z,39.50
2019-04-27T02:32:39.734Z,42.95
2019-04-27T02:35:42.028Z,49.65
2019-04-27T02:38:43.593Z,42.75
2019-04-27T02:41:44.890Z,50.20
2019-04-27T02:44:49.380Z,54.67
2019-04-27T02:47:51.869Z,44.83
2019-04-27T02:50:59.913Z,45.20
2019-04-27T02:54:01.707Z,40.73
2019-04-27T02:57:03.417Z,48.87
2019-04-27T03:00:05.189Z,54.18
2019-04-27T03:03:10.267Z,43.65
2019-04-27T03:06:11.614Z,53.20
2019-04-27T03:09:32.873Z,43.25
2019-04-27T03:12:36.062Z,55.80
2019-04-27T03:15:45.193Z,43.55
2019-04-27T03:19:14.315Z,44.85
2019-04-27T03:22:29.586Z,45.80
2019-04-27T03:25:32.957Z,39.83
2019-04-27T03:28:34.254Z,45.35
2019-04-27T03:31:36.899Z,43.25
2019-04-27T03:34:41.782Z,45.40
2019-04-27T03:37:42.066Z,57.15
2019-04-27T03:40:43.374Z,44.88
2019-04-27T03:43:45.831Z,48.15
2019-04-27T03:46:49.483Z,55.43
2019-04-27T03:49:50.916Z,37.23
2019-04-27T03:52:54.347Z,43.68
2019-04-27T03:55:59.962Z,54.10
2019-04-27T03:59:03.044Z,49.53
2019-04-27T04:02:05.105Z,47.85
2019-04-27T04:05:09.642Z,56.55
2019-04-27T04:08:10.942Z,48.23
2019-04-27T04:11:14.287Z,50.48
2019-04-27T04:14:20.105Z,41.70
2019-04-27T04:20:46.407Z,45.12
2019-04-27T04:23:49.477Z,46.80
2019-04-27T04:26:53.114Z,49.00
2019-04-27T04:29:54.389Z,43.85
2019-04-27T04:32:56.321Z,52.27
2019-04-27T04:35:59.666Z,41.73
2019-04-27T04:39:00.913Z,46.95
2019-04-27T04:42:04.069Z,44.93
2019-04-27T04:45:07.272Z,44.30
2019-04-27T04:48:10.462Z,43.55
2019-04-27T04:51:12.252Z,50.50
2019-04-27T04:54:13.539Z,50.95
2019-04-27T04:57:15.519Z,39.18
2019-04-27T05:00:19.751Z,47.70
2019-04-27T05:03:21.825Z,46.70
2019-04-27T05:06:25.509Z,41.42
2019-04-27T05:09:26.630Z,53.20
2019-04-27T05:12:28.792Z,49.63
2019-04-27T05:15:30.562Z,49.27
2019-04-27T05:18:31.873Z,53.68
2019-04-27T05:21:34.311Z,61.45
2019-04-27T05:24:35.602Z,48.33
2019-04-27T05:27:38.957Z,45.67
2019-04-27T05:30:40.466Z,45.00
2019-04-27T05:33:41.946Z,51.18
2019-04-27T05:36:48.758Z,57.50
2019-04-27T05:39:46.518Z,60.20
2019-04-27T05:42:48.823Z,43.13
2019-04-27T05:46:29.750Z,56.55
2019-04-27T05:49:41.164Z,48.75
2019-04-27T05:52:41.001Z,47.35
2019-04-27T05:55:42.297Z,46.18
2019-04-27T05:58:43.799Z,51.33
2019-04-27T06:01:45.082Z,47.05
2019-04-27T06:04:46.585Z,44.30
2019-04-27T06:07:48.761Z,37.93
2019-04-27T06:10:50.441Z,49.88
2019-04-27T06:13:51.745Z,41.95
2019-04-27T06:16:53.239Z,33.80
2019-04-27T06:19:55.038Z,54.77
2019-04-27T06:22:58.896Z,39.48
2019-04-27T06:26:01.748Z,49.53
2019-04-27T06:29:03.592Z,42.83
2019-04-27T06:32:04.865Z,52.45
2019-04-27T06:35:06.385Z,42.23
2019-04-27T06:38:07.746Z,47.33
2019-04-27T06:41:09.990Z,42.48
2019-04-27T06:44:11.573Z,45.95
2019-04-27T06:47:13.093Z,50.38
2019-04-27T06:50:14.505Z,40.85
2019-04-27T06:53:15.965Z,39.03
2019-04-27T06:56:18.530Z,51.25
2019-04-27T06:59:19.953Z,32.70
2019-04-27T07:02:22.283Z,41.55
2019-04-27T07:05:23.771Z,43.25
2019-04-27T07:08:25.353Z,46.68
2019-04-27T07:11:26.630Z,30.60
2019-04-27T07:14:29.472Z,38.70
2019-04-27T07:17:31.031Z,39.50
2019-04-27T07:20:32.402Z,43.95
2019-04-27T07:23:36.210Z,39.18
2019-04-27T07:26:39.082Z,48.42
2019-04-27T07:29:44.629Z,41.20
2019-04-27T07:32:44.918Z,49.30
2019-04-27T07:35:46.201Z,32.53
2019-04-27T07:38:48.584Z,36.08
2019-04-27T07:41:49.958Z,41.83
2019-04-27T07:44:53.235Z,39.83
2019-04-27T07:47:54.790Z,43.25
2019-04-27T07:50:56.487Z,42.88
2019-04-27T07:53:58.944Z,33.45
2019-04-27T07:57:00.468Z,42.30
2019-04-27T08:00:04.104Z,31.15
2019-04-27T08:03:05.362Z,33.70
2019-04-27T08:06:08.497Z,41.45
2019-04-27T08:09:10.086Z,40.83
2019-04-27T08:12:11.567Z,41.92
2019-04-27T08:15:12.878Z,38.58
2019-04-27T08:18:14.753Z,48.55
2019-04-27T08:21:16.350Z,38.90
2019-04-27T08:24:19.412Z,47.93
2019-04-27T08:27:34.943Z,37.25
2019-04-27T08:30:39.360Z,32.20
2019-04-27T08:33:41.154Z,38.98
2019-04-27T08:36:42.487Z,42.20
2019-04-27T08:39:43.991Z,39.03
2019-04-27T08:42:45.330Z,34.38
2019-04-27T08:45:48.345Z,23.35
2019-04-27T08:48:50.133Z,36.63
2019-04-27T08:51:58.827Z,48.25
2019-04-27T08:54:54.960Z,35.90
2019-04-27T08:57:58.558Z,35.30
2019-04-27T09:01:00.022Z,30.85
2019-04-27T09:04:01.572Z,34.83
2019-04-27T09:07:21.673Z,26.20
2019-04-27T09:13:32.486Z,30.20
2019-04-27T09:16:35.794Z,31.37
2019-04-27T09:19:59.152Z,19.05
2019-04-27T09:22:59.407Z,27.95
2019-04-27T09:26:00.691Z,29.10
2019-04-27T09:29:01.994Z,28.12
2019-04-27T09:32:03.867Z,22.22
2019-04-27T09:35:05.925Z,30.85
2019-04-27T09:38:08.349Z,28.30
2019-04-27T09:41:10.361Z,30.57
2019-04-27T09:44:11.703Z,27.87
2019-04-27T09:47:13.366Z,35.73
2019-04-27T09:50:16.202Z,22.77
2019-04-27T09:53:18.145Z,24.75
2019-04-27T09:56:20.240Z,28.25
2019-04-27T09:59:21.828Z,34.20
2019-04-27T10:02:23.165Z,23.20
2019-04-27T10:05:26.282Z,29.15
2019-04-27T10:08:28.133Z,21.05
2019-04-27T10:11:30.180Z,21.82
2019-04-27T10:14:33.526Z,24.98
2019-04-27T10:17:35.192Z,24.20
2019-04-27T10:20:40.545Z,27.82
2019-04-27T10:23:41.318Z,24.27
2019-04-27T10:26:43.865Z,24.02
2019-04-27T10:29:46.734Z,19.15
2019-04-27T10:32:48.975Z,16.90
2019-04-27T10:35:50.365Z,18.00
2019-04-27T10:38:51.663Z,18.62
2019-04-27T10:41:53.149Z,25.68
2019-04-27T10:44:56.040Z,23.02
2019-04-27T10:47:57.557Z,25.05
2019-04-27T10:50:59.323Z,22.05
2019-04-27T10:54:01.639Z,22.17
2019-04-27T10:57:05.934Z,24.43
2019-04-27T11:00:08.776Z,23.45
2019-04-27T11:03:11.192Z,19.27
2019-04-27T11:06:36.715Z,25.55
2019-04-27T11:09:38.700Z,24.65
2019-04-27T11:12:40.678Z,28.83
2019-04-27T11:15:42.313Z,20.32
2019-04-27T11:18:44.352Z,22.27
2019-04-27T11:21:45.640Z,26.37
2019-04-27T11:24:47.905Z,16.85
2019-04-27T11:27:49.690Z,15.70
2019-04-27T11:30:51.094Z,16.07
2019-04-27T11:33:53.617Z,21.52
2019-04-27T11:36:57.906Z,11.45
2019-04-27T11:39:59.792Z,18.02
2019-04-27T11:43:01.194Z,25.48
2019-04-27T11:46:02.514Z,18.17
2019-04-27T11:49:04.119Z,20.55
2019-04-27T11:52:05.870Z,20.68
2019-04-27T11:55:07.571Z,13.98
2019-04-27T11:58:08.862Z,25.23
2019-04-27T12:01:10.514Z,25.05
2019-04-27T12:04:11.870Z,20.45
2019-04-27T12:07:13.315Z,22.22
2019-04-27T12:10:15.841Z,17.30
2019-04-27T12:13:17.348Z,18.15
2019-04-27T12:16:18.699Z,23.10
2019-04-27T12:19:20.471Z,22.85
2019-04-27T12:22:22.531Z,18.27
2019-04-27T12:25:23.992Z,18.50
2019-04-27T12:28:27.527Z,16.25
2019-04-27T12:31:30.735Z,20.05
2019-04-27T12:34:36.107Z,21.65
2019-04-27T12:37:38.785Z,24.45
2019-04-27T12:40:40.276Z,23.85
2019-04-27T12:43:42.118Z,19.00
2019-04-27T12:46:43.690Z,16.37
2019-04-27T12:49:45.370Z,18.87
2019-04-27T12:52:58.084Z,18.60
2019-04-27T12:56:16.739Z,23.50
2019-04-27T12:59:37.198Z,16.77
2019-04-27T13:02:38.617Z,22.40
2019-04-27T13:05:40.529Z,23.62
2019-04-27T13:08:42.547Z,26.07
2019-04-27T13:11:45.812Z,25.27
2019-04-27T13:14:47.999Z,25.45
2019-04-27T13:17:49.385Z,21.82
2019-04-27T13:20:50.827Z,21.48
2019-04-27T13:24:03.629Z,25.82
2019-04-27T13:26:57.298Z,22.87
2019-04-27T13:29:59.544Z,21.95
2019-04-27T13:33:00.979Z,23.42
2019-04-27T13:36:02.758Z,21.95
2019-04-27T13:39:06.325Z,23.55
2019-04-27T13:42:07.854Z,27.02
2019-04-27T13:45:11.474Z,26.75
2019-04-27T13:48:17.762Z,19.23
2019-04-27T13:51:36.556Z,24.67
2019-04-27T13:54:38.338Z,20.12
2019-04-27T13:57:50.035Z,18.40
2019-04-27T14:00:44.058Z,19.52
2019-04-27T14:03:45.762Z,16.95
2019-04-27T14:06:47.054Z,21.40
2019-04-27T14:09:50.496Z,21.07
2019-04-27T14:12:51.921Z,24.05
2019-04-27T14:15:53.964Z,25.52
2019-04-27T14:18:55.492Z,24.35
2019-04-27T14:21:56.978Z,26.52
2019-04-27T14:24:58.673Z,25.25
2019-04-27T14:28:00.452Z,19.70
2019-04-27T14:31:01.722Z,25.48
2019-04-27T14:34:06.635Z,24.02
2019-04-27T14:37:08.640Z,21.62
2019-04-27T14:40:10.926Z,31.23
2019-04-27T14:43:12.223Z,24.80
2019-04-27T14:46:14.010Z,23.52
2019-04-27T14:49:15.463Z,30.17
2019-04-27T14:52:18.756Z,30.37
2019-04-27T14:55:20.281Z,30.52
2019-04-27T14:58:21.784Z,27.42
2019-04-27T15:01:25.258Z,30.45
2019-04-27T15:04:28.870Z,33.80
2019-04-27T15:07:30.126Z,50.28
2019-04-27T15:10:35.879Z,35.52
2019-04-27T15:13:37.776Z,72.65
2019-04-27T15:16:42.669Z,63.55
2019-04-27T15:19:52.769Z,35.78
2019-04-27T15:22:56.879Z,39.27
2019-04-27T15:25:56.710Z,59.90
2019-04-27T15:28:59.969Z,35.03
2019-04-27T15:32:04.247Z,65.70
2019-04-27T15:35:10.587Z,57.45
2019-04-27T15:38:14.326Z,45.90
2019-04-27T15:41:32.583Z,37.40
2019-04-27T15:44:41.114Z,35.15
2019-04-27T15:47:42.452Z,40.88
2019-04-27T15:50:43.947Z,40.75
2019-04-27T15:53:50.807Z,40.52
2019-04-27T15:56:49.287Z,67.87
2019-04-27T15:59:50.573Z,123.92
2019-04-27T16:02:52.734Z,42.15
2019-04-27T16:05:54.322Z,41.42
2019-04-27T16:08:55.642Z,52.73
2019-04-27T16:12:07.112Z,44.60
2019-04-27T16:15:01.930Z,47.95
2019-04-27T16:18:03.210Z,47.85
2019-04-27T16:21:07.164Z,53.85
2019-04-27T16:24:08.494Z,65.83
2019-04-27T16:27:11.076Z,52.65
2019-04-27T16:30:17.927Z,61.58
2019-04-27T16:33:20.258Z,52.83
2019-04-27T16:36:19.823Z,50.88
2019-04-27T16:39:21.363Z,49.33
2019-04-27T16:42:22.962Z,49.73
2019-04-27T16:45:27.065Z,52.43
2019-04-27T16:48:34.359Z,51.95
2019-04-27T16:51:36.679Z,58.02
2019-04-27T16:54:35.535Z,55.60
2019-04-27T16:57:39.976Z,54.42
2019-04-27T17:00:40.850Z,58.20
2019-04-27T17:03:42.721Z,58.13
2019-04-27T17:06:45.979Z,62.53
2019-04-27T17:09:49.421Z,68.75
2019-04-27T17:12:51.794Z,65.42
2019-04-27T17:16:13.389Z,65.45
2019-04-27T17:19:16.698Z,60.33
2019-04-27T17:22:20.221Z,65.83
2019-04-27T17:25:23.468Z,71.60
2019-04-27T17:28:27.166Z,70.52
2019-04-27T17:31:30.533Z,60.35
2019-04-27T17:34:31.821Z,59.80
2019-04-27T17:37:33.913Z,60.58
2019-04-27T17:40:36.037Z,62.45
2019-04-27T17:43:41.285Z,68.15
2019-04-27T17:46:42.755Z,59.00
2019-04-27T17:49:44.460Z,67.12
2019-04-27T17:52:48.485Z,59.55
2019-04-27T17:55:49.149Z,66.67
2019-04-27T17:58:52.327Z,62.03
2019-04-27T18:02:00.963Z,61.28
2019-04-27T18:04:58.864Z,57.53
2019-04-27T18:08:00.862Z,59.75
2019-04-27T18:11:03.250Z,62.30
2019-04-27T18:14:05.869Z,57.80
2019-04-27T18:17:10.383Z,58.65
2019-04-27T18:20:26.689Z,56.08
2019-04-27T18:23:36.610Z,58.13
2019-04-27T18:26:49.100Z,56.08
2019-04-27T18:29:43.806Z,57.95
2019-04-27T18:32:45.631Z,58.83
2019-04-27T18:35:49.117Z,55.75
2019-04-27T18:38:52.120Z,49.53
2019-04-27T18:41:54.356Z,52.93
2019-04-27T18:44:56.355Z,48.20
2019-04-27T18:48:00.305Z,47.05
2019-04-27T18:51:03.972Z,49.67
2019-04-27T18:54:05.598Z,48.58
2019-04-27T18:57:10.914Z,47.38
2019-04-27T19:00:12.559Z,45.48
2019-04-27T19:03:13.966Z,44.13
2019-04-27T19:06:15.451Z,49.18
2019-04-27T19:09:18.650Z,46.90
2019-04-27T19:12:20.654Z,48.95
2019-04-27T19:15:22.573Z,49.73
2019-04-27T19:18:24.427Z,49.42
2019-04-27T19:21:26.494Z,46.75
2019-04-27T19:24:28.284Z,41.92
2019-04-27T19:27:50.303Z,42.98
2019-04-27T19:30:53.740Z,38.10
2019-04-27T19:33:56.566Z,41.65
2019-04-27T19:36:59.647Z,41.92
2019-04-27T19:40:01.042Z,41.05
2019-04-27T19:43:02.538Z,40.60
2019-04-27T19:46:04.017Z,47.30
2019-04-27T19:49:05.419Z,47.08
2019-04-27T19:52:08.545Z,45.95
2019-04-27T19:55:10.718Z,44.05
2019-04-27T19:58:13.490Z,44.33
2019-04-27T20:01:19.878Z,44.10
2019-04-27T20:04:30.801Z,45.03
2019-04-27T20:07:32.384Z,44.38
2019-04-27T20:10:34.367Z,43.38
2019-04-27T20:13:35.983Z,43.48
2019-04-27T20:16:37.969Z,43.75
2019-04-27T20:19:39.530Z,37.73
2019-04-27T20:22:42.030Z,40.80
2019-04-27T20:25:43.461Z,45.52
2019-04-27T20:28:45.271Z,40.00
2019-04-27T20:31:47.537Z,41.37
2019-04-27T20:34:50.830Z,38.85
2019-04-27T20:37:52.555Z,39.95
2019-04-27T20:40:54.293Z,46.98
2019-04-27T20:43:55.744Z,46.02
2019-04-27T20:46:57.587Z,45.40
2019-04-27T20:49:59.184Z,41.20
2019-04-27T20:53:02.483Z,40.43
2019-04-27T20:56:03.877Z,39.75
2019-04-27T20:59:05.508Z,42.08
2019-04-27T21:02:27.066Z,39.73
2019-04-27T21:05:47.262Z,40.12
2019-04-27T21:08:48.802Z,43.05
2019-04-27T21:11:50.315Z,39.05
2019-04-27T21:14:52.013Z,40.30
2019-04-27T21:17:53.685Z,42.73
2019-04-27T21:20:55.169Z,43.87
2019-04-27T21:23:56.798Z,41.55
2019-04-27T21:26:58.077Z,43.90
2019-04-27T21:29:59.577Z,39.58
2019-04-27T21:33:01.217Z,43.15
2019-04-27T21:36:03.202Z,43.68
2019-04-27T21:39:05.762Z,39.08
2019-04-27T21:42:07.165Z,46.37
2019-04-27T21:45:08.449Z,45.67
2019-04-27T21:48:10.966Z,45.08
2019-04-27T21:51:12.366Z,42.05
2019-04-27T21:54:15.598Z,47.30
2019-04-27T21:57:17.061Z,45.80
2019-04-27T22:00:42.727Z,43.45
2019-04-27T22:03:45.243Z,46.58
2019-04-27T22:06:46.819Z,48.42
2019-04-27T22:09:48.117Z,47.80
2019-04-27T22:12:49.447Z,45.17
2019-04-27T22:15:50.980Z,46.42
2019-04-27T22:18:52.489Z,50.52
2019-04-27T22:21:54.660Z,47.15
2019-04-27T22:24:57.855Z,54.67
2019-04-27T22:28:01.457Z,52.10
2019-04-27T22:31:02.886Z,49.13
2019-04-27T22:34:04.374Z,47.50
2019-04-27T22:37:06.178Z,53.10
2019-04-27T22:40:21.542Z,54.27
2019-04-27T22:43:31.542Z,52.45
2019-04-27T22:46:35.868Z,57.03
2019-04-27T22:49:37.142Z,58.42
2019-04-27T22:52:38.789Z,69.50
2019-04-27T22:55:58.551Z,65.50
2019-04-27T22:59:04.075Z,67.12
2019-04-27T23:02:19.042Z,59.80
2019-04-27T23:05:21.197Z,62.38
2019-04-27T23:08:22.697Z,54.65
2019-04-27T23:11:24.200Z,54.30
2019-04-27T23:14:25.505Z,50.90
2019-04-27T23:17:46.898Z,53.40
2019-04-27T23:20:48.679Z,55.95
2019-04-27T23:23:51.740Z,54.38
2019-04-27T23:26:53.355Z,53.23
2019-04-27T23:29:54.652Z,48.63
2019-04-27T23:32:56.293Z,48.05
2019-04-27T23:35:57.597Z,46.33
2019-04-27T23:39:00.891Z,47.48
2019-04-27T23:42:06.648Z,48.20
2019-04-27T23:45:06.710Z,48.85
2019-04-27T23:48:08.099Z,46.85
2019-04-27T23:51:14.152Z,46.45
2019-04-27T23:54:15.502Z,52.27
2019-04-27T23:57:16.976Z,46.18
